sensor_id;sensor_type;location;lat;lon;timestamp;pressure;altitude;pressure_sealevel;temperature;humidity
27334;BME280;14817;57.104;-2.094;2023-12-20T00:00:01;100345.69;;;4.49;100.00
27334;BME280;14817;57.104;-2.094;2023-12-20T00:02:30;100326.66;;;4.44;100.00
27334;BME280;14817;57.104;-2.094;2023-12-20T00:04:56;100316.63;;;4.37;100.00
27334;BME280;14817;57.104;-2.094;2023-12-20T00:07:23;100335.22;;;4.48;100.00
27334;BME280;14817;57.104;-2.094;2023-12-20T00:09:50;100334.25;;;4.49;100.00
27334;BME280;14817;57.104;-2.094;2023-12-20T00:12:17;100328.34;;;4.45;100.00
27334;BME280;14817;57.104;-2.094;2023-12-20T00:14:44;100328.69;;;4.41;100.00
27334;BME280;14817;57.104;-2.094;2023-12-20T00:17:10;100335.47;;;4.45;100.00
27334;BME280;14817;57.104;-2.094;2023-12-20T00:19:37;100344.88;;;4.49;100.00
27334;BME280;14817;57.104;-2.094;2023-12-20T00:22:06;100329.91;;;4.48;100.00
27334;BME280;14817;57.104;-2.094;2023-12-20T00:24:35;100319.78;;;4.42;100.00
27334;BME280;14817;57.104;-2.094;2023-12-20T00:27:01;100316.25;;;4.30;100.00
27334;BME280;14817;57.104;-2.094;2023-12-20T00:29:28;100311.53;;;4.22;100.00
27334;BME280;14817;57.104;-2.094;2023-12-20T00:31:55;100310.81;;;4.20;100.00
27334;BME280;14817;57.104;-2.094;2023-12-20T00:34:22;100314.69;;;4.16;100.00
27334;BME280;14817;57.104;-2.094;2023-12-20T00:36:48;100345.78;;;4.25;100.00
27334;BME280;14817;57.104;-2.094;2023-12-20T00:39:15;100347.44;;;4.26;100.00
27334;BME280;14817;57.104;-2.094;2023-12-20T00:41:42;100347.72;;;4.35;100.00
27334;BME280;14817;57.104;-2.094;2023-12-20T00:44:11;100329.41;;;4.32;100.00
27334;BME280;14817;57.104;-2.094;2023-12-20T00:46:38;100332.75;;;4.22;100.00
27334;BME280;14817;57.104;-2.094;2023-12-20T00:49:04;100347.69;;;4.23;100.00
27334;BME280;14817;57.104;-2.094;2023-12-20T00:51:31;100348.19;;;4.28;100.00
27334;BME280;14817;57.104;-2.094;2023-12-20T00:53:58;100357.47;;;4.34;100.00
27334;BME280;14817;57.104;-2.094;2023-12-20T00:56:25;100375.94;;;4.36;100.00
27334;BME280;14817;57.104;-2.094;2023-12-20T00:58:51;100381.69;;;4.29;100.00
27334;BME280;14817;57.104;-2.094;2023-12-20T01:01:18;100370.63;;;4.36;100.00
27334;BME280;14817;57.104;-2.094;2023-12-20T01:03:45;100389.22;;;4.47;100.00
27334;BME280;14817;57.104;-2.094;2023-12-20T01:06:11;100386.81;;;4.44;100.00
27334;BME280;14817;57.104;-2.094;2023-12-20T01:08:38;100393.31;;;4.40;100.00
27334;BME280;14817;57.104;-2.094;2023-12-20T01:11:05;100374.38;;;4.44;100.00
27334;BME280;14817;57.104;-2.094;2023-12-20T01:13:32;100355.47;;;4.38;100.00
27334;BME280;14817;57.104;-2.094;2023-12-20T01:15:59;100359.75;;;4.27;100.00
27334;BME280;14817;57.104;-2.094;2023-12-20T01:18:26;100371.56;;;4.35;100.00
27334;BME280;14817;57.104;-2.094;2023-12-20T01:20:52;100359.03;;;4.25;100.00
27334;BME280;14817;57.104;-2.094;2023-12-20T01:23:19;100361.06;;;4.22;100.00
27334;BME280;14817;57.104;-2.094;2023-12-20T01:25:46;100346.13;;;4.21;100.00
27334;BME280;14817;57.104;-2.094;2023-12-20T01:28:12;100328.97;;;4.14;100.00
27334;BME280;14817;57.104;-2.094;2023-12-20T01:30:39;100314.16;;;4.11;100.00
27334;BME280;14817;57.104;-2.094;2023-12-20T01:33:06;100314.78;;;4.15;100.00
27334;BME280;14817;57.104;-2.094;2023-12-20T01:35:33;100288.59;;;3.99;100.00
27334;BME280;14817;57.104;-2.094;2023-12-20T01:37:59;100290.50;;;3.97;100.00
27334;BME280;14817;57.104;-2.094;2023-12-20T01:40:26;100294.47;;;3.91;100.00
27334;BME280;14817;57.104;-2.094;2023-12-20T01:43:06;100296.88;;;3.94;100.00
27334;BME280;14817;57.104;-2.094;2023-12-20T01:45:33;100282.41;;;3.76;100.00
27334;BME280;14817;57.104;-2.094;2023-12-20T01:48:00;100281.75;;;3.72;100.00
27334;BME280;14817;57.104;-2.094;2023-12-20T01:50:29;100292.84;;;3.77;100.00
27334;BME280;14817;57.104;-2.094;2023-12-20T01:52:57;100288.13;;;3.70;100.00
27334;BME280;14817;57.104;-2.094;2023-12-20T01:55:27;100286.22;;;3.72;100.00
27334;BME280;14817;57.104;-2.094;2023-12-20T01:57:54;100265.03;;;3.72;100.00
27334;BME280;14817;57.104;-2.094;2023-12-20T02:00:20;100239.16;;;3.75;100.00
27334;BME280;14817;57.104;-2.094;2023-12-20T02:02:50;100221.78;;;3.71;100.00
27334;BME280;14817;57.104;-2.094;2023-12-20T02:05:17;100238.94;;;3.78;100.00
27334;BME280;14817;57.104;-2.094;2023-12-20T02:07:44;100219.19;;;3.82;100.00
27334;BME280;14817;57.104;-2.094;2023-12-20T02:10:11;100199.94;;;3.80;100.00
27334;BME280;14817;57.104;-2.094;2023-12-20T02:12:38;100186.69;;;3.80;100.00
27334;BME280;14817;57.104;-2.094;2023-12-20T02:15:05;100170.91;;;3.79;100.00
27334;BME280;14817;57.104;-2.094;2023-12-20T02:17:32;100164.53;;;3.81;100.00
27334;BME280;14817;57.104;-2.094;2023-12-20T02:19:59;100167.06;;;3.83;100.00
27334;BME280;14817;57.104;-2.094;2023-12-20T02:22:26;100161.28;;;3.78;100.00
27334;BME280;14817;57.104;-2.094;2023-12-20T02:24:53;100196.34;;;3.93;100.00
27334;BME280;14817;57.104;-2.094;2023-12-20T02:27:19;100200.06;;;3.90;100.00
27334;BME280;14817;57.104;-2.094;2023-12-20T02:29:46;100212.25;;;3.93;100.00
27334;BME280;14817;57.104;-2.094;2023-12-20T02:32:13;100220.78;;;3.96;100.00
27334;BME280;14817;57.104;-2.094;2023-12-20T02:34:40;100213.56;;;3.87;100.00
27334;BME280;14817;57.104;-2.094;2023-12-20T02:37:07;100228.84;;;3.95;100.00
27334;BME280;14817;57.104;-2.094;2023-12-20T02:39:34;100228.59;;;3.86;100.00
27334;BME280;14817;57.104;-2.094;2023-12-20T02:42:00;100212.72;;;3.86;100.00
27334;BME280;14817;57.104;-2.094;2023-12-20T02:44:27;100228.72;;;3.96;100.00
27334;BME280;14817;57.104;-2.094;2023-12-20T02:46:54;100218.59;;;3.90;100.00
27334;BME280;14817;57.104;-2.094;2023-12-20T02:49:20;100221.16;;;4.03;100.00
27334;BME280;14817;57.104;-2.094;2023-12-20T02:51:47;100180.22;;;4.07;100.00
27334;BME280;14817;57.104;-2.094;2023-12-20T02:54:14;100120.00;;;4.09;100.00
27334;BME280;14817;57.104;-2.094;2023-12-20T02:56:41;100138.66;;;4.07;100.00
27334;BME280;14817;57.104;-2.094;2023-12-20T02:59:08;100122.75;;;4.07;100.00
27334;BME280;14817;57.104;-2.094;2023-12-20T03:01:41;100149.03;;;4.11;100.00
27334;BME280;14817;57.104;-2.094;2023-12-20T03:04:08;100163.63;;;4.16;100.00
27334;BME280;14817;57.104;-2.094;2023-12-20T03:06:35;100166.38;;;4.15;100.00
27334;BME280;14817;57.104;-2.094;2023-12-20T03:09:01;100173.25;;;4.17;100.00
27334;BME280;14817;57.104;-2.094;2023-12-20T03:11:28;100154.44;;;4.20;100.00
27334;BME280;14817;57.104;-2.094;2023-12-20T03:13:55;100162.63;;;4.17;100.00
27334;BME280;14817;57.104;-2.094;2023-12-20T03:16:22;100167.81;;;4.19;100.00
27334;BME280;14817;57.104;-2.094;2023-12-20T03:18:49;100178.53;;;4.17;100.00
27334;BME280;14817;57.104;-2.094;2023-12-20T03:21:16;100162.28;;;4.11;100.00
27334;BME280;14817;57.104;-2.094;2023-12-20T03:23:42;100171.31;;;4.08;100.00
27334;BME280;14817;57.104;-2.094;2023-12-20T03:26:09;100196.59;;;4.01;100.00
27334;BME280;14817;57.104;-2.094;2023-12-20T03:28:36;100212.84;;;4.07;100.00
27334;BME280;14817;57.104;-2.094;2023-12-20T03:31:03;100188.41;;;3.93;100.00
27334;BME280;14817;57.104;-2.094;2023-12-20T03:33:30;100235.38;;;3.91;100.00
27334;BME280;14817;57.104;-2.094;2023-12-20T03:35:57;100240.78;;;3.89;100.00
27334;BME280;14817;57.104;-2.094;2023-12-20T03:38:23;100260.25;;;3.88;100.00
27334;BME280;14817;57.104;-2.094;2023-12-20T03:40:50;100229.34;;;3.88;100.00
27334;BME280;14817;57.104;-2.094;2023-12-20T03:43:17;100188.25;;;3.94;100.00
27334;BME280;14817;57.104;-2.094;2023-12-20T03:45:44;100133.72;;;4.03;100.00
27334;BME280;14817;57.104;-2.094;2023-12-20T03:48:11;100111.78;;;4.01;100.00
27334;BME280;14817;57.104;-2.094;2023-12-20T03:50:37;100095.41;;;4.07;100.00
27334;BME280;14817;57.104;-2.094;2023-12-20T03:53:04;100067.47;;;4.03;100.00
27334;BME280;14817;57.104;-2.094;2023-12-20T03:55:31;100008.84;;;3.96;100.00
27334;BME280;14817;57.104;-2.094;2023-12-20T03:57:57;99996.81;;;4.03;100.00
27334;BME280;14817;57.104;-2.094;2023-12-20T04:00:24;99956.47;;;4.00;100.00
27334;BME280;14817;57.104;-2.094;2023-12-20T04:02:51;99946.72;;;3.89;100.00
27334;BME280;14817;57.104;-2.094;2023-12-20T04:05:18;99944.84;;;3.80;100.00
27334;BME280;14817;57.104;-2.094;2023-12-20T04:07:45;99969.66;;;3.67;100.00
27334;BME280;14817;57.104;-2.094;2023-12-20T04:10:12;99969.28;;;3.61;100.00
27334;BME280;14817;57.104;-2.094;2023-12-20T04:12:39;100001.78;;;3.63;100.00
27334;BME280;14817;57.104;-2.094;2023-12-20T04:15:06;99971.44;;;3.56;100.00
27334;BME280;14817;57.104;-2.094;2023-12-20T04:17:36;99981.44;;;3.63;100.00
27334;BME280;14817;57.104;-2.094;2023-12-20T04:20:03;99960.97;;;3.65;100.00
27334;BME280;14817;57.104;-2.094;2023-12-20T04:22:31;99966.00;;;3.68;100.00
27334;BME280;14817;57.104;-2.094;2023-12-20T04:24:57;99953.63;;;3.69;100.00
27334;BME280;14817;57.104;-2.094;2023-12-20T04:27:24;99919.34;;;3.67;100.00
27334;BME280;14817;57.104;-2.094;2023-12-20T04:29:50;99929.53;;;3.83;100.00
27334;BME280;14817;57.104;-2.094;2023-12-20T04:32:17;99911.47;;;3.88;100.00
27334;BME280;14817;57.104;-2.094;2023-12-20T04:34:44;99906.28;;;3.87;100.00
27334;BME280;14817;57.104;-2.094;2023-12-20T04:37:10;99927.94;;;3.92;100.00
27334;BME280;14817;57.104;-2.094;2023-12-20T04:39:39;99924.06;;;3.96;100.00
27334;BME280;14817;57.104;-2.094;2023-12-20T04:42:07;99896.63;;;3.97;100.00
27334;BME280;14817;57.104;-2.094;2023-12-20T04:44:33;99902.47;;;4.12;100.00
27334;BME280;14817;57.104;-2.094;2023-12-20T04:47:00;99865.63;;;4.09;100.00
27334;BME280;14817;57.104;-2.094;2023-12-20T04:49:27;99841.53;;;4.12;100.00
27334;BME280;14817;57.104;-2.094;2023-12-20T04:51:54;99875.47;;;4.18;100.00
27334;BME280;14817;57.104;-2.094;2023-12-20T04:54:22;99860.84;;;4.24;100.00
27334;BME280;14817;57.104;-2.094;2023-12-20T04:56:49;99818.41;;;4.14;100.00
27334;BME280;14817;57.104;-2.094;2023-12-20T04:59:15;99830.75;;;4.25;100.00
27334;BME280;14817;57.104;-2.094;2023-12-20T05:01:42;99778.66;;;4.14;100.00
27334;BME280;14817;57.104;-2.094;2023-12-20T05:04:09;99785.03;;;4.12;100.00
27334;BME280;14817;57.104;-2.094;2023-12-20T05:06:36;99819.13;;;4.16;100.00
27334;BME280;14817;57.104;-2.094;2023-12-20T05:09:03;99827.06;;;4.16;100.00
27334;BME280;14817;57.104;-2.094;2023-12-20T05:11:29;99832.22;;;4.18;100.00
27334;BME280;14817;57.104;-2.094;2023-12-20T05:13:56;99805.16;;;4.14;100.00
27334;BME280;14817;57.104;-2.094;2023-12-20T05:16:23;99790.09;;;4.15;100.00
27334;BME280;14817;57.104;-2.094;2023-12-20T05:18:50;99784.19;;;4.11;100.00
27334;BME280;14817;57.104;-2.094;2023-12-20T05:21:18;99840.03;;;4.19;100.00
27334;BME280;14817;57.104;-2.094;2023-12-20T05:23:45;99813.81;;;4.16;100.00
27334;BME280;14817;57.104;-2.094;2023-12-20T05:26:12;99825.44;;;4.25;100.00
27334;BME280;14817;57.104;-2.094;2023-12-20T05:28:39;99793.88;;;4.22;100.00
27334;BME280;14817;57.104;-2.094;2023-12-20T05:31:06;99761.88;;;4.14;100.00
27334;BME280;14817;57.104;-2.094;2023-12-20T05:33:33;99782.00;;;4.16;100.00
27334;BME280;14817;57.104;-2.094;2023-12-20T05:36:00;99782.84;;;3.96;100.00
27334;BME280;14817;57.104;-2.094;2023-12-20T05:38:27;99772.16;;;3.86;100.00
27334;BME280;14817;57.104;-2.094;2023-12-20T05:40:53;99773.25;;;3.83;100.00
27334;BME280;14817;57.104;-2.094;2023-12-20T05:43:20;99769.25;;;3.68;100.00
27334;BME280;14817;57.104;-2.094;2023-12-20T05:45:47;99765.44;;;3.61;100.00
27334;BME280;14817;57.104;-2.094;2023-12-20T05:48:13;99789.97;;;3.63;100.00
27334;BME280;14817;57.104;-2.094;2023-12-20T05:50:40;99782.53;;;3.57;100.00
27334;BME280;14817;57.104;-2.094;2023-12-20T05:53:07;99773.38;;;3.50;100.00
27334;BME280;14817;57.104;-2.094;2023-12-20T05:55:36;99789.88;;;3.53;100.00
27334;BME280;14817;57.104;-2.094;2023-12-20T05:58:03;99770.16;;;3.46;100.00
27334;BME280;14817;57.104;-2.094;2023-12-20T06:00:29;99810.44;;;3.50;100.00
27334;BME280;14817;57.104;-2.094;2023-12-20T06:02:56;99801.56;;;3.51;100.00
27334;BME280;14817;57.104;-2.094;2023-12-20T06:05:23;99819.59;;;3.57;100.00
27334;BME280;14817;57.104;-2.094;2023-12-20T06:07:50;99806.59;;;3.54;100.00
27334;BME280;14817;57.104;-2.094;2023-12-20T06:10:17;99795.75;;;3.57;100.00
27334;BME280;14817;57.104;-2.094;2023-12-20T06:12:44;99763.78;;;3.48;100.00
27334;BME280;14817;57.104;-2.094;2023-12-20T06:15:11;99783.47;;;3.56;100.00
27334;BME280;14817;57.104;-2.094;2023-12-20T06:17:38;99785.28;;;3.55;100.00
27334;BME280;14817;57.104;-2.094;2023-12-20T06:20:06;99787.31;;;3.63;100.00
27334;BME280;14817;57.104;-2.094;2023-12-20T06:22:35;99796.94;;;3.64;100.00
27334;BME280;14817;57.104;-2.094;2023-12-20T06:25:02;99769.84;;;3.72;100.00
27334;BME280;14817;57.104;-2.094;2023-12-20T06:27:29;99718.09;;;3.67;100.00
27334;BME280;14817;57.104;-2.094;2023-12-20T06:29:56;99702.06;;;3.69;100.00
27334;BME280;14817;57.104;-2.094;2023-12-20T06:32:22;99673.09;;;3.67;100.00
27334;BME280;14817;57.104;-2.094;2023-12-20T06:34:50;99653.72;;;3.67;100.00
27334;BME280;14817;57.104;-2.094;2023-12-20T06:37:16;99649.66;;;3.63;100.00
27334;BME280;14817;57.104;-2.094;2023-12-20T06:39:43;99635.69;;;3.61;100.00
27334;BME280;14817;57.104;-2.094;2023-12-20T06:42:10;99645.56;;;3.59;100.00
27334;BME280;14817;57.104;-2.094;2023-12-20T06:44:36;99675.66;;;3.58;100.00
27334;BME280;14817;57.104;-2.094;2023-12-20T06:47:04;99694.38;;;3.66;100.00
27334;BME280;14817;57.104;-2.094;2023-12-20T06:49:30;99676.69;;;3.66;100.00
27334;BME280;14817;57.104;-2.094;2023-12-20T06:51:57;99681.84;;;3.68;100.00
27334;BME280;14817;57.104;-2.094;2023-12-20T06:54:24;99693.56;;;3.65;100.00
27334;BME280;14817;57.104;-2.094;2023-12-20T06:56:51;99743.47;;;3.70;100.00
27334;BME280;14817;57.104;-2.094;2023-12-20T06:59:17;99778.34;;;3.75;100.00
27334;BME280;14817;57.104;-2.094;2023-12-20T07:01:47;99784.50;;;3.76;100.00
27334;BME280;14817;57.104;-2.094;2023-12-20T07:04:15;99822.28;;;3.78;100.00
27334;BME280;14817;57.104;-2.094;2023-12-20T07:06:43;99814.47;;;3.76;100.00
27334;BME280;14817;57.104;-2.094;2023-12-20T07:09:09;99876.09;;;3.78;100.00
27334;BME280;14817;57.104;-2.094;2023-12-20T07:11:36;99882.69;;;3.84;100.00
27334;BME280;14817;57.104;-2.094;2023-12-20T07:14:03;99915.06;;;3.87;100.00
27334;BME280;14817;57.104;-2.094;2023-12-20T07:16:30;99903.53;;;3.88;100.00
27334;BME280;14817;57.104;-2.094;2023-12-20T07:18:56;99906.63;;;3.94;100.00
27334;BME280;14817;57.104;-2.094;2023-12-20T07:21:23;99905.16;;;4.01;100.00
27334;BME280;14817;57.104;-2.094;2023-12-20T07:23:50;99899.84;;;4.01;100.00
27334;BME280;14817;57.104;-2.094;2023-12-20T07:26:17;99909.72;;;3.99;100.00
27334;BME280;14817;57.104;-2.094;2023-12-20T07:28:44;99903.72;;;3.97;100.00
27334;BME280;14817;57.104;-2.094;2023-12-20T07:31:10;99911.66;;;3.97;100.00
27334;BME280;14817;57.104;-2.094;2023-12-20T07:33:37;99913.84;;;3.92;100.00
27334;BME280;14817;57.104;-2.094;2023-12-20T07:36:06;99923.84;;;3.88;100.00
27334;BME280;14817;57.104;-2.094;2023-12-20T07:38:32;99927.84;;;3.82;100.00
27334;BME280;14817;57.104;-2.094;2023-12-20T07:40:59;99944.69;;;3.81;100.00
27334;BME280;14817;57.104;-2.094;2023-12-20T07:43:26;99973.97;;;3.80;100.00
27334;BME280;14817;57.104;-2.094;2023-12-20T07:45:52;99990.56;;;3.82;100.00
27334;BME280;14817;57.104;-2.094;2023-12-20T07:48:19;100026.44;;;3.86;100.00
27334;BME280;14817;57.104;-2.094;2023-12-20T07:50:46;100011.63;;;3.83;100.00
27334;BME280;14817;57.104;-2.094;2023-12-20T07:53:12;100000.31;;;3.81;100.00
27334;BME280;14817;57.104;-2.094;2023-12-20T07:55:40;100008.50;;;3.89;100.00
27334;BME280;14817;57.104;-2.094;2023-12-20T07:58:06;99997.41;;;3.96;100.00
27334;BME280;14817;57.104;-2.094;2023-12-20T08:00:33;99968.88;;;3.99;100.00
27334;BME280;14817;57.104;-2.094;2023-12-20T08:02:59;99910.09;;;4.05;100.00
27334;BME280;14817;57.104;-2.094;2023-12-20T08:05:30;99869.09;;;4.09;100.00
27334;BME280;14817;57.104;-2.094;2023-12-20T08:07:56;99827.31;;;4.13;100.00
27334;BME280;14817;57.104;-2.094;2023-12-20T08:10:23;99820.78;;;4.17;100.00
27334;BME280;14817;57.104;-2.094;2023-12-20T08:12:50;99772.13;;;4.18;100.00
27334;BME280;14817;57.104;-2.094;2023-12-20T08:15:17;99748.06;;;4.31;100.00
27334;BME280;14817;57.104;-2.094;2023-12-20T08:17:44;99736.34;;;4.34;100.00
27334;BME280;14817;57.104;-2.094;2023-12-20T08:20:11;99736.34;;;4.34;100.00
27334;BME280;14817;57.104;-2.094;2023-12-20T08:22:40;99722.41;;;4.32;100.00
27334;BME280;14817;57.104;-2.094;2023-12-20T08:25:07;99711.78;;;4.32;100.00
27334;BME280;14817;57.104;-2.094;2023-12-20T08:27:39;99728.84;;;4.39;100.00
27334;BME280;14817;57.104;-2.094;2023-12-20T08:30:08;99714.63;;;4.40;100.00
27334;BME280;14817;57.104;-2.094;2023-12-20T08:32:34;99690.31;;;4.35;100.00
27334;BME280;14817;57.104;-2.094;2023-12-20T08:35:01;99723.66;;;4.37;100.00
27334;BME280;14817;57.104;-2.094;2023-12-20T08:37:29;99751.84;;;4.38;100.00
27334;BME280;14817;57.104;-2.094;2023-12-20T08:39:56;99754.63;;;4.37;100.00
27334;BME280;14817;57.104;-2.094;2023-12-20T08:42:23;99772.78;;;4.41;100.00
27334;BME280;14817;57.104;-2.094;2023-12-20T08:44:51;99799.88;;;4.45;100.00
27334;BME280;14817;57.104;-2.094;2023-12-20T08:47:17;99798.94;;;4.46;100.00
27334;BME280;14817;57.104;-2.094;2023-12-20T08:49:46;99790.88;;;4.57;100.00
27334;BME280;14817;57.104;-2.094;2023-12-20T08:52:13;99754.72;;;4.56;100.00
27334;BME280;14817;57.104;-2.094;2023-12-20T08:54:39;99755.72;;;4.55;100.00
27334;BME280;14817;57.104;-2.094;2023-12-20T08:57:08;99785.47;;;4.59;100.00
27334;BME280;14817;57.104;-2.094;2023-12-20T08:59:35;99780.63;;;4.74;100.00
27334;BME280;14817;57.104;-2.094;2023-12-20T09:02:01;99753.00;;;4.76;100.00
27334;BME280;14817;57.104;-2.094;2023-12-20T09:04:28;99729.72;;;4.89;100.00
27334;BME280;14817;57.104;-2.094;2023-12-20T09:06:55;99677.63;;;4.88;100.00
27334;BME280;14817;57.104;-2.094;2023-12-20T09:09:22;99666.19;;;4.88;100.00
27334;BME280;14817;57.104;-2.094;2023-12-20T09:11:49;99665.63;;;4.84;100.00
27334;BME280;14817;57.104;-2.094;2023-12-20T09:14:17;99672.91;;;4.82;100.00
27334;BME280;14817;57.104;-2.094;2023-12-20T09:16:44;99694.66;;;4.86;100.00
27334;BME280;14817;57.104;-2.094;2023-12-20T09:19:11;99696.06;;;4.80;100.00
27334;BME280;14817;57.104;-2.094;2023-12-20T09:21:38;99740.16;;;4.81;100.00
27334;BME280;14817;57.104;-2.094;2023-12-20T09:24:04;99779.00;;;4.82;100.00
27334;BME280;14817;57.104;-2.094;2023-12-20T09:26:31;99820.19;;;4.86;100.00
27334;BME280;14817;57.104;-2.094;2023-12-20T09:28:58;99801.88;;;4.83;100.00
27334;BME280;14817;57.104;-2.094;2023-12-20T09:31:24;99857.72;;;4.82;100.00
27334;BME280;14817;57.104;-2.094;2023-12-20T09:33:51;99865.25;;;4.77;100.00
27334;BME280;14817;57.104;-2.094;2023-12-20T09:36:18;99876.81;;;4.76;100.00
27334;BME280;14817;57.104;-2.094;2023-12-20T09:38:45;99905.44;;;4.72;100.00
27334;BME280;14817;57.104;-2.094;2023-12-20T09:41:13;99908.78;;;4.74;100.00
27334;BME280;14817;57.104;-2.094;2023-12-20T09:43:39;99939.25;;;4.80;100.00
27334;BME280;14817;57.104;-2.094;2023-12-20T09:46:07;99898.31;;;4.73;100.00
27334;BME280;14817;57.104;-2.094;2023-12-20T09:48:34;99918.31;;;4.77;100.00
27334;BME280;14817;57.104;-2.094;2023-12-20T09:51:02;99880.34;;;4.76;100.00
27334;BME280;14817;57.104;-2.094;2023-12-20T09:53:29;99852.50;;;4.70;100.00
27334;BME280;14817;57.104;-2.094;2023-12-20T09:55:58;99824.56;;;4.66;100.00
27334;BME280;14817;57.104;-2.094;2023-12-20T09:58:26;99813.78;;;4.58;100.00
27334;BME280;14817;57.104;-2.094;2023-12-20T10:00:53;99843.09;;;4.57;100.00
27334;BME280;14817;57.104;-2.094;2023-12-20T10:03:23;99897.53;;;4.61;100.00
27334;BME280;14817;57.104;-2.094;2023-12-20T10:05:52;99869.41;;;4.48;100.00
27334;BME280;14817;57.104;-2.094;2023-12-20T10:08:20;99926.03;;;4.47;100.00
27334;BME280;14817;57.104;-2.094;2023-12-20T10:10:48;99938.13;;;4.40;100.00
27334;BME280;14817;57.104;-2.094;2023-12-20T10:13:15;99959.72;;;4.36;100.00
27334;BME280;14817;57.104;-2.094;2023-12-20T10:15:42;100010.78;;;4.49;100.00
27334;BME280;14817;57.104;-2.094;2023-12-20T10:18:11;100014.38;;;4.48;100.00
27334;BME280;14817;57.104;-2.094;2023-12-20T10:20:39;100022.25;;;4.38;100.00
27334;BME280;14817;57.104;-2.094;2023-12-20T10:23:06;100053.34;;;4.36;100.00
27334;BME280;14817;57.104;-2.094;2023-12-20T10:25:33;100073.06;;;4.43;100.00
27334;BME280;14817;57.104;-2.094;2023-12-20T10:28:13;100082.47;;;4.47;100.00
27334;BME280;14817;57.104;-2.094;2023-12-20T10:30:41;100059.97;;;4.42;100.00
27334;BME280;14817;57.104;-2.094;2023-12-20T10:33:08;100087.91;;;4.35;100.00
27334;BME280;14817;57.104;-2.094;2023-12-20T10:35:37;100103.34;;;4.41;100.00
27334;BME280;14817;57.104;-2.094;2023-12-20T10:38:05;100128.41;;;4.37;100.00
27334;BME280;14817;57.104;-2.094;2023-12-20T10:40:36;100142.38;;;4.39;100.00
27334;BME280;14817;57.104;-2.094;2023-12-20T10:43:04;100138.06;;;4.38;100.00
27334;BME280;14817;57.104;-2.094;2023-12-20T10:45:32;100164.66;;;4.47;100.00
27334;BME280;14817;57.104;-2.094;2023-12-20T10:47:59;100158.66;;;4.45;100.00
27334;BME280;14817;57.104;-2.094;2023-12-20T10:50:27;100169.03;;;4.48;100.00
27334;BME280;14817;57.104;-2.094;2023-12-20T10:52:54;100158.06;;;4.42;100.00
27334;BME280;14817;57.104;-2.094;2023-12-20T10:55:22;100150.84;;;4.44;100.00
27334;BME280;14817;57.104;-2.094;2023-12-20T10:57:50;100164.56;;;4.49;100.00
27334;BME280;14817;57.104;-2.094;2023-12-20T11:00:18;100142.84;;;4.55;100.00
27334;BME280;14817;57.104;-2.094;2023-12-20T11:02:45;100145.38;;;4.45;100.00
27334;BME280;14817;57.104;-2.094;2023-12-20T11:07:50;100134.94;;;4.44;100.00
27334;BME280;14817;57.104;-2.094;2023-12-20T11:10:23;100126.25;;;4.42;100.00
27334;BME280;14817;57.104;-2.094;2023-12-20T11:13:03;100129.38;;;4.47;100.00
27334;BME280;14817;57.104;-2.094;2023-12-20T11:15:38;100119.09;;;4.54;100.00
27334;BME280;14817;57.104;-2.094;2023-12-20T11:18:05;100128.50;;;4.58;100.00
27334;BME280;14817;57.104;-2.094;2023-12-20T11:20:37;100120.53;;;4.58;100.00
27334;BME280;14817;57.104;-2.094;2023-12-20T11:23:04;100112.47;;;4.59;100.00
27334;BME280;14817;57.104;-2.094;2023-12-20T11:28:13;100107.63;;;4.64;100.00
27334;BME280;14817;57.104;-2.094;2023-12-20T11:30:40;100091.25;;;4.59;100.00
27334;BME280;14817;57.104;-2.094;2023-12-20T11:33:07;100084.47;;;4.66;100.00
27334;BME280;14817;57.104;-2.094;2023-12-20T11:35:35;100066.41;;;4.60;100.00
27334;BME280;14817;57.104;-2.094;2023-12-20T11:38:03;100046.91;;;4.61;100.00
27334;BME280;14817;57.104;-2.094;2023-12-20T11:40:31;100052.66;;;4.66;100.00
27334;BME280;14817;57.104;-2.094;2023-12-20T11:43:00;100032.97;;;4.69;100.00
27334;BME280;14817;57.104;-2.094;2023-12-20T11:45:27;100032.59;;;4.74;100.00
27334;BME280;14817;57.104;-2.094;2023-12-20T11:47:56;100031.53;;;4.76;100.00
27334;BME280;14817;57.104;-2.094;2023-12-20T11:50:24;100016.84;;;4.72;100.00
27334;BME280;14817;57.104;-2.094;2023-12-20T11:52:52;100011.06;;;4.88;100.00
27334;BME280;14817;57.104;-2.094;2023-12-20T11:55:19;100008.03;;;4.93;100.00
27334;BME280;14817;57.104;-2.094;2023-12-20T11:57:46;99999.03;;;4.84;100.00
27334;BME280;14817;57.104;-2.094;2023-12-20T12:00:13;99993.34;;;4.88;100.00
27334;BME280;14817;57.104;-2.094;2023-12-20T12:02:40;99998.72;;;4.98;100.00
27334;BME280;14817;57.104;-2.094;2023-12-20T12:05:07;99989.09;;;4.97;100.00
27334;BME280;14817;57.104;-2.094;2023-12-20T12:07:35;99988.81;;;5.00;100.00
27334;BME280;14817;57.104;-2.094;2023-12-20T12:10:02;99979.16;;;4.99;100.00
27334;BME280;14817;57.104;-2.094;2023-12-20T12:12:30;99971.75;;;4.93;100.00
27334;BME280;14817;57.104;-2.094;2023-12-20T12:14:57;99968.81;;;4.96;100.00
27334;BME280;14817;57.104;-2.094;2023-12-20T12:17:24;99964.53;;;4.84;100.00
27334;BME280;14817;57.104;-2.094;2023-12-20T12:19:51;99955.38;;;4.88;100.00
27334;BME280;14817;57.104;-2.094;2023-12-20T12:22:28;99932.31;;;4.88;100.00
27334;BME280;14817;57.104;-2.094;2023-12-20T12:24:54;99913.44;;;4.82;100.00
27334;BME280;14817;57.104;-2.094;2023-12-20T12:27:25;99908.72;;;4.85;100.00
27334;BME280;14817;57.104;-2.094;2023-12-20T12:30:01;99907.38;;;4.91;100.00
27334;BME280;14817;57.104;-2.094;2023-12-20T12:32:30;99902.22;;;4.99;100.00
27334;BME280;14817;57.104;-2.094;2023-12-20T12:34:57;99906.44;;;5.02;100.00
27334;BME280;14817;57.104;-2.094;2023-12-20T12:37:24;99901.69;;;5.05;100.00
27334;BME280;14817;57.104;-2.094;2023-12-20T12:39:53;99899.03;;;5.05;100.00
27334;BME280;14817;57.104;-2.094;2023-12-20T12:42:19;99863.69;;;4.95;100.00
27334;BME280;14817;57.104;-2.094;2023-12-20T12:44:47;99864.69;;;5.04;100.00
27334;BME280;14817;57.104;-2.094;2023-12-20T12:47:13;99861.03;;;5.05;100.00
27334;BME280;14817;57.104;-2.094;2023-12-20T12:49:40;99867.94;;;5.17;100.00